Time;durP1;ratioP1;P1;durP2;ratioP2;P2;SDS_P1;SDS_P2;PMS_P1;PMS_P2;Temp;Humidity;BMP_temperature;BMP_pressure;BME280_temperature;BME280_humidity;BME280_pressure;Samples;Min_cycle;Max_cycle;Signal;HPM_P1;HPM_P2
2022/07/15 00:01:28;;;;;;;1.80;0.28;;;14.50;99.90;;;;;;6156583;23;20071;-90
2022/07/15 00:09:14;;;;;;;3.35;0.22;;;14.50;99.90;;;;;;6156181;23;20099;-89
2022/07/15 00:11:45;;;;;;;4.65;0.40;;;14.50;99.90;;;;;;6105726;23;20047;-90
2022/07/15 00:14:14;;;;;;;5.18;0.43;;;14.50;99.90;;;;;;6129772;23;20013;-89
2022/07/15 00:19:33;;;;;;;4.03;0.63;;;14.50;99.90;;;;;;5985298;23;20024;-88
2022/07/15 00:21:59;;;;;;;3.90;0.35;;;14.50;99.90;;;;;;5985229;23;20023;-89
2022/07/15 00:24:32;;;;;;;3.22;0.30;;;14.50;99.90;;;;;;5985329;23;20028;-89
2022/07/15 00:27:10;;;;;;;3.70;0.40;;;14.50;99.90;;;;;;6008843;23;20019;-89
2022/07/15 00:29:36;;;;;;;5.85;0.57;;;14.50;99.90;;;;;;5984383;23;20020;-88
2022/07/15 00:32:01;;;;;;;2.53;0.30;;;14.50;99.90;;;;;;6008839;23;20019;-89
2022/07/15 00:34:27;;;;;;;3.60;0.40;;;14.60;99.90;;;;;;5984880;23;20019;-88
2022/07/15 00:36:53;;;;;;;2.67;0.30;;;14.50;99.90;;;;;;5985594;23;20027;-89
2022/07/15 00:39:20;;;;;;;1.25;0.30;;;14.50;99.90;;;;;;5961957;23;20121;-88
2022/07/15 00:41:46;;;;;;;1.88;0.30;;;14.50;99.90;;;;;;5985353;23;20016;-88
2022/07/15 00:44:14;;;;;;;1.02;0.20;;;14.50;99.90;;;;;;5985173;23;20399;-89
2022/07/15 00:46:41;;;;;;;4.07;0.38;;;14.40;99.90;;;;;;6008469;23;20030;-90
2022/07/15 00:49:12;;;;;;;2.40;0.30;;;14.40;99.90;;;;;;6008616;23;20152;-89
2022/07/15 00:51:42;;;;;;;2.88;0.30;;;14.40;99.90;;;;;;5985240;23;20118;-89
2022/07/15 00:54:13;;;;;;;3.63;0.40;;;14.30;99.90;;;;;;5961748;23;20566;-88
2022/07/15 00:56:47;;;;;;;1.50;0.30;;;14.30;99.90;;;;;;6063034;23;20049;-89
2022/07/15 00:59:15;;;;;;;0.57;0.22;;;14.20;99.90;;;;;;6156141;23;20017;-88
2022/07/15 01:01:42;;;;;;;2.05;0.30;;;14.20;99.90;;;;;;6156236;23;20053;-89
2022/07/15 01:04:19;;;;;;;3.42;0.50;;;14.60;99.90;;;;;;6155544;23;20458;-90
2022/07/15 01:06:44;;;;;;;3.85;0.40;;;14.20;99.90;;;;;;6155534;23;20033;-88
2022/07/15 01:09:10;;;;;;;0.90;0.20;;;14.20;99.90;;;;;;6105203;23;20017;-88
2022/07/15 01:11:36;;;;;;;5.65;0.30;;;14.20;99.90;;;;;;6155994;23;20022;-89
2022/07/15 01:14:03;;;;;;;2.90;0.25;;;14.20;99.90;;;;;;6129576;23;20021;-89
2022/07/15 01:16:29;;;;;;;2.45;0.30;;;14.50;99.90;;;;;;6129994;23;20022;-89
2022/07/15 01:18:55;;;;;;;2.72;0.40;;;14.10;99.90;;;;;;6155943;23;20052;-88
2022/07/15 01:21:21;;;;;;;1.35;0.20;;;14.20;99.90;;;;;;6130053;23;20446;-89
2022/07/15 01:23:47;;;;;;;0.85;0.25;;;14.10;99.90;;;;;;6129746;23;20025;-89
2022/07/15 01:26:14;;;;;;;1.35;0.20;;;14.10;99.90;;;;;;6155675;23;20310;-88
2022/07/15 01:28:40;;;;;;;0.77;0.20;;;14.20;99.90;;;;;;6129598;23;20029;-90
2022/07/15 01:31:07;;;;;;;1.35;0.10;;;14.30;99.90;;;;;;6155648;23;20013;-88
2022/07/15 01:33:33;;;;;;;1.85;0.20;;;14.20;99.90;;;;;;6129294;23;20022;-89
2022/07/15 01:35:59;;;;;;;2.78;0.20;;;14.20;99.90;;;;;;6129088;23;20026;-88
2022/07/15 01:38:27;;;;;;;2.15;0.30;;;14.10;99.90;;;;;;6128858;23;20440;-88
2022/07/15 01:40:53;;;;;;;1.60;0.20;;;14.30;99.90;;;;;;6155840;23;20013;-89
2022/07/15 01:43:18;;;;;;;1.48;0.30;;;14.10;99.90;;;;;;6129413;23;20020;-88
2022/07/15 01:45:45;;;;;;;1.23;0.20;;;14.10;99.90;;;;;;6129242;23;20028;-88
2022/07/15 01:49:21;;;;;;;2.15;0.20;;;14.00;99.90;;;;;;6154839;23;20024;-87
2022/07/15 01:51:00;;;;;;;1.98;0.10;;;14.00;99.90;;;;;;6129002;23;20029;-89
2022/07/15 01:53:28;;;;;;;2.40;0.20;;;13.90;99.90;;;;;;6155087;23;20326;-88
2022/07/15 01:55:54;;;;;;;2.00;0.20;;;13.90;99.90;;;;;;6129318;23;20021;-88
2022/07/15 01:58:20;;;;;;;2.10;0.25;;;14.00;99.90;;;;;;6129126;23;20022;-89
2022/07/15 02:00:46;;;;;;;0.85;0.20;;;13.80;99.90;;;;;;6129169;23;20096;-87
2022/07/15 02:03:12;;;;;;;1.35;0.20;;;13.80;99.90;;;;;;6155572;23;20025;-88
2022/07/15 02:05:38;;;;;;;2.35;0.10;;;13.70;99.90;;;;;;6154385;23;20021;-88
2022/07/15 02:08:05;;;;;;;0.17;0.10;;;13.70;99.90;;;;;;6158103;23;20080;-88
2022/07/15 02:10:39;;;;;;;2.13;0.20;;;13.60;99.90;;;;;;6158302;23;20426;-89
2022/07/15 02:13:06;;;;;;;1.05;0.10;;;13.80;99.90;;;;;;6158294;23;20056;-89
2022/07/15 02:15:33;;;;;;;0.10;0.10;;;13.60;99.90;;;;;;6184639;23;20021;-88
2022/07/15 02:17:59;;;;;;;1.65;0.20;;;13.50;99.90;;;;;;6133587;23;20017;-89
2022/07/15 02:20:24;;;;;;;2.35;0.20;;;13.50;99.90;;;;;;6158109;23;20475;-89
2022/07/15 02:22:50;;;;;;;0.10;0.00;;;13.40;99.90;;;;;;6185411;23;20013;-88
2022/07/15 02:25:16;;;;;;;0.45;0.13;;;13.40;99.90;;;;;;6185093;23;20092;-88
2022/07/15 02:27:42;;;;;;;0.35;0.03;;;13.30;99.90;;;;;;6158490;23;20021;-88
2022/07/15 02:30:08;;;;;;;1.02;0.10;;;13.30;99.90;;;;;;6158322;23;20043;-90
2022/07/15 02:32:34;;;;;;;0.10;0.10;;;13.30;99.90;;;;;;6158696;23;20024;-89
2022/07/15 02:35:00;;;;;;;1.80;0.30;;;13.20;99.90;;;;;;6158736;23;20017;-89
2022/07/15 02:37:25;;;;;;;0.55;0.10;;;13.20;99.90;;;;;;6158730;23;20022;-89
2022/07/15 02:39:51;;;;;;;1.38;0.20;;;13.20;99.90;;;;;;6158184;23;20024;-88
2022/07/15 02:42:17;;;;;;;5.15;0.65;;;13.20;99.90;;;;;;6158070;23;20076;-89
2022/07/15 02:44:43;;;;;;;0.20;0.10;;;13.20;99.90;;;;;;6158220;23;20029;-89
2022/07/15 02:47:11;;;;;;;0.95;0.20;;;13.20;99.90;;;;;;6158130;23;20021;-89
2022/07/15 02:49:39;;;;;;;2.65;0.20;;;13.10;99.90;;;;;;6157981;23;20025;-89
2022/07/15 02:52:05;;;;;;;1.13;0.05;;;13.10;99.90;;;;;;6158533;23;20025;-89
2022/07/15 02:54:30;;;;;;;1.13;0.20;;;13.50;99.90;;;;;;6160160;23;20017;-88
2022/07/15 02:56:56;;;;;;;0.43;0.20;;;13.20;99.90;;;;;;6186972;23;20044;-88
2022/07/15 02:59:26;;;;;;;0.30;0.10;;;13.20;99.90;;;;;;6136297;23;20028;-90
2022/07/15 03:01:52;;;;;;;0.63;0.10;;;13.00;99.90;;;;;;6160894;23;20474;-88
2022/07/15 03:04:18;;;;;;;0.15;0.10;;;13.10;99.90;;;;;;6159999;23;20021;-89
2022/07/15 03:06:44;;;;;;;0.68;0.10;;;13.30;99.90;;;;;;6160499;23;20021;-89
2022/07/15 03:09:19;;;;;;;0.32;0.10;;;13.00;99.90;;;;;;6186629;23;20103;-90
2022/07/15 03:11:45;;;;;;;0.38;0.10;;;13.00;99.90;;;;;;6160361;23;20115;-89
2022/07/15 03:14:18;;;;;;;1.10;0.30;;;13.00;99.90;;;;;;6159977;23;20452;-89
2022/07/15 03:16:46;;;;;;;0.10;0.10;;;13.30;99.90;;;;;;6186725;23;20446;-89
2022/07/15 03:19:12;;;;;;;0.10;0.10;;;12.90;99.90;;;;;;6135402;23;20343;-88
2022/07/15 03:21:38;;;;;;;1.75;0.20;;;12.80;99.90;;;;;;6160031;23;20024;-89
2022/07/15 03:24:07;;;;;;;0.45;0.13;;;12.80;99.90;;;;;;6186669;23;20079;-90
2022/07/15 03:26:33;;;;;;;1.85;0.30;;;13.00;99.90;;;;;;6159895;23;20013;-89
2022/07/15 03:29:00;;;;;;;0.65;0.10;;;12.80;99.90;;;;;;6159904;23;20048;-89
2022/07/15 03:31:26;;;;;;;0.55;0.20;;;12.80;99.90;;;;;;6186545;23;20017;-88
2022/07/15 03:33:53;;;;;;;1.45;0.13;;;12.80;99.90;;;;;;6186529;23;20083;-89
2022/07/15 03:36:19;;;;;;;0.13;0.10;;;12.90;99.90;;;;;;6159514;23;20021;-88
2022/07/15 03:38:45;;;;;;;0.30;0.10;;;12.90;99.90;;;;;;6184988;23;20087;-88
2022/07/15 03:41:11;;;;;;;0.38;0.10;;;12.90;99.90;;;;;;6159741;23;20021;-89
2022/07/15 03:43:36;;;;;;;0.65;0.10;;;12.90;99.90;;;;;;6158802;23;20029;-90
2022/07/15 03:46:08;;;;;;;0.50;0.10;;;12.80;99.90;;;;;;6159533;23;20016;-89
2022/07/15 03:48:34;;;;;;;0.17;0.08;;;13.20;99.90;;;;;;6186209;23;20518;-91
2022/07/15 03:50:59;;;;;;;0.30;0.00;;;12.90;99.90;;;;;;6159710;23;20017;-88
2022/07/15 03:53:25;;;;;;;0.50;0.10;;;13.00;99.90;;;;;;6159801;23;20024;-88
2022/07/15 03:56:01;;;;;;;1.00;0.15;;;13.00;99.90;;;;;;6159616;23;20075;-87
2022/07/15 03:58:31;;;;;;;0.88;0.10;;;13.00;99.90;;;;;;6135093;23;20290;-89
2022/07/15 04:00:57;;;;;;;0.32;0.10;;;13.30;99.90;;;;;;6186423;23;20114;-89
2022/07/15 04:03:23;;;;;;;0.22;0.08;;;13.00;99.90;;;;;;6186227;23;20017;-89
2022/07/15 04:05:49;;;;;;;0.20;0.10;;;13.60;99.90;;;;;;6158957;23;20032;-89
2022/07/15 04:08:18;;;;;;;0.30;0.10;;;13.00;99.90;;;;;;6159678;23;20443;-89
2022/07/15 04:10:45;;;;;;;0.20;0.10;;;13.00;99.90;;;;;;6159909;23;20439;-88
2022/07/15 04:13:11;;;;;;;0.03;0.00;;;13.10;99.90;;;;;;6186284;23;20428;-89
2022/07/15 04:15:39;;;;;;;0.28;0.10;;;13.10;99.90;;;;;;6134693;23;20029;-87
2022/07/15 04:18:05;;;;;;;1.17;0.10;;;13.00;99.90;;;;;;6186040;23;20025;-91
2022/07/15 04:20:31;;;;;;;0.73;0.00;;;13.10;99.90;;;;;;6159734;23;20017;-90
2022/07/15 04:22:57;;;;;;;1.48;0.20;;;13.10;99.90;;;;;;6134849;23;20016;-89
2022/07/15 04:25:22;;;;;;;1.08;0.20;;;13.10;99.90;;;;;;6159535;23;20021;-90
2022/07/15 04:27:49;;;;;;;0.43;0.17;;;13.00;99.90;;;;;;6159331;23;20100;-89
2022/07/15 04:30:15;;;;;;;0.82;0.10;;;12.80;99.90;;;;;;6159195;23;20036;-89
2022/07/15 04:32:43;;;;;;;1.98;0.20;;;12.90;99.90;;;;;;6159295;23;20458;-88
2022/07/15 04:35:09;;;;;;;0.25;0.10;;;13.00;99.90;;;;;;6185964;23;20021;-89
2022/07/15 04:37:35;;;;;;;0.45;0.10;;;12.90;99.90;;;;;;6159684;23;20024;-89
2022/07/15 04:40:01;;;;;;;0.22;0.00;;;13.30;99.90;;;;;;6184238;23;20091;-88
2022/07/15 04:42:34;;;;;;;0.85;0.10;;;13.10;99.90;;;;;;6159397;23;20053;-89
2022/07/15 04:44:59;;;;;;;0.88;0.10;;;13.10;99.90;;;;;;6159050;23;20099;-89
2022/07/15 04:47:25;;;;;;;0.85;0.20;;;13.20;99.90;;;;;;6185785;23;20056;-88
2022/07/15 04:52:46;;;;;;;0.10;0.10;;;13.30;99.90;;;;;;6159161;23;20021;-89
2022/07/15 04:55:12;;;;;;;0.10;0.10;;;13.30;99.90;;;;;;6185924;23;20070;-89
2022/07/15 04:57:38;;;;;;;0.73;0.20;;;13.50;99.90;;;;;;6134405;23;20054;-88
2022/07/15 05:00:05;;;;;;;0.40;0.10;;;13.40;99.90;;;;;;6185333;23;20024;-87
2022/07/15 05:02:33;;;;;;;1.35;0.47;;;13.50;99.90;;;;;;6184906;23;20049;-88
2022/07/15 05:04:59;;;;;;;0.30;0.20;;;13.50;99.90;;;;;;6159141;23;20017;-89
2022/07/15 05:07:25;;;;;;;1.40;0.13;;;13.50;99.90;;;;;;6159498;23;20079;-88
2022/07/15 05:09:50;;;;;;;0.20;0.10;;;13.50;99.90;;;;;;6185596;23;20079;-88
2022/07/15 05:12:16;;;;;;;0.10;0.05;;;13.60;99.90;;;;;;6159390;23;20053;-88
2022/07/15 05:14:42;;;;;;;0.60;0.10;;;13.60;99.90;;;;;;6185451;23;20052;-87
2022/07/15 05:17:08;;;;;;;0.30;0.20;;;13.70;99.90;;;;;;6159194;23;20383;-88
2022/07/15 05:19:35;;;;;;;0.25;0.10;;;13.70;99.90;;;;;;6185423;23;20104;-89
2022/07/15 05:22:01;;;;;;;0.40;0.10;;;13.80;99.90;;;;;;6158672;23;20028;-88
2022/07/15 05:24:27;;;;;;;0.10;0.10;;;13.80;99.90;;;;;;6185601;23;20021;-87
2022/07/15 05:26:53;;;;;;;0.52;0.10;;;13.90;99.90;;;;;;6185761;23;20020;-89
2022/07/15 05:29:21;;;;;;;1.92;0.20;;;14.00;99.90;;;;;;6158671;23;20352;-88
2022/07/15 05:32:13;;;;;;;0.68;0.10;;;14.00;99.90;;;;;;6159032;23;20021;-89
2022/07/15 05:34:46;;;;;;;0.03;0.00;;;14.20;99.90;;;;;;6158466;23;20021;-90
2022/07/15 05:37:12;;;;;;;0.40;0.20;;;14.20;99.90;;;;;;6159495;23;20071;-90
2022/07/15 05:40:01;;;;;;;1.55;0.10;;;14.30;99.90;;;;;;6158800;23;20021;-88
2022/07/15 05:42:29;;;;;;;0.00;0.00;;;14.30;99.90;;;;;;6158071;23;20021;-90
2022/07/15 05:44:55;;;;;;;0.10;0.10;;;14.40;99.90;;;;;;6184812;23;20478;-89
2022/07/15 05:47:24;;;;;;;0.10;0.10;;;14.30;99.90;;;;;;6185374;23;20053;-88
2022/07/15 05:50:02;;;;;;;;;;;;;;;;;;;;;
2022/07/15 05:52:37;;;;;;;0.50;0.10;;;14.40;99.90;;;;;;6150053;23;20013;-89
2022/07/15 05:55:08;;;;;;;0.28;0.10;;;14.50;99.90;;;;;;6184138;23;20017;-89
2022/07/15 05:57:33;;;;;;;2.78;0.30;;;14.50;99.90;;;;;;6158846;23;20024;-88
2022/07/15 06:00:02;;;;;;;0.70;0.10;;;14.50;99.90;;;;;;6158713;23;20017;-89
2022/07/15 06:02:32;;;;;;;1.27;0.20;;;14.60;99.90;;;;;;6184975;23;20036;-88
2022/07/15 06:04:58;;;;;;;0.63;0.10;;;14.60;99.90;;;;;;6155560;23;20013;-89
2022/07/15 06:07:26;;;;;;;1.77;0.05;;;14.70;99.90;;;;;;6158703;23;20112;-89
2022/07/15 06:09:54;;;;;;;0.50;0.10;;;14.70;99.90;;;;;;6158968;23;20344;-89
2022/07/15 06:12:22;;;;;;;2.05;0.30;;;14.70;99.90;;;;;;6158949;23;20013;-89
2022/07/15 06:14:48;;;;;;;0.55;0.10;;;14.90;99.90;;;;;;6185054;23;20021;-89
2022/07/15 06:17:21;;;;;;;1.38;0.10;;;14.90;99.90;;;;;;6184898;23;20432;-88
2022/07/15 06:34:14;;;;;;;2.15;0.10;;;14.80;99.90;;;;;;5901201;24;20036;-89
2022/07/15 06:37:46;;;;;;;1.70;0.10;;;15.30;99.90;;;;;;5923960;24;20080;-89
2022/07/15 06:40:17;;;;;;;0.43;0.10;;;15.40;99.90;;;;;;5901147;23;20067;-90
2022/07/15 06:43:22;;;;;;;1.23;0.10;;;15.60;99.90;;;;;;5968780;23;20381;-86
2022/07/15 06:45:48;;;;;;;0.40;0.10;;;15.70;99.90;;;;;;6125747;23;20034;-87
2022/07/15 06:48:16;;;;;;;0.95;0.10;;;15.80;99.90;;;;;;6156042;23;20033;-90
2022/07/15 06:50:50;;;;;;;0.20;0.10;;;15.90;99.90;;;;;;6147177;23;20036;-90
2022/07/15 06:53:34;;;;;;;0.70;0.10;;;16.00;99.90;;;;;;6152635;23;20104;-88
2022/07/15 06:56:00;;;;;;;3.40;0.10;;;16.00;99.90;;;;;;6114114;23;20044;-86
2022/07/15 06:58:35;;;;;;;1.15;0.10;;;16.00;99.90;;;;;;6145002;23;20032;-87
2022/07/15 07:01:10;;;;;;;1.75;0.17;;;16.00;99.90;;;;;;6128688;23;20052;-86
2022/07/15 07:04:05;;;;;;;1.02;0.20;;;16.00;99.90;;;;;;6155093;23;20021;-87
2022/07/15 07:06:56;;;;;;;0.55;0.10;;;15.90;99.90;;;;;;6152853;23;20051;-87
2022/07/15 07:09:22;;;;;;;0.70;0.13;;;16.00;99.90;;;;;;6134162;23;20021;-86
2022/07/15 07:11:48;;;;;;;0.15;0.10;;;16.10;99.90;;;;;;6184467;23;20024;-85
2022/07/15 07:14:14;;;;;;;1.45;0.00;;;16.20;99.90;;;;;;6158548;23;20029;-89
2022/07/15 07:16:42;;;;;;;1.50;0.10;;;16.30;99.90;;;;;;6183990;23;20092;-89
2022/07/15 07:19:08;;;;;;;0.20;0.10;;;16.40;99.90;;;;;;6158617;23;20013;-89
2022/07/15 07:21:34;;;;;;;0.47;0.10;;;16.60;99.90;;;;;;6158481;23;20523;-89
2022/07/15 07:24:17;;;;;;;0.35;0.10;;;16.80;99.90;;;;;;6184388;23;20095;-87
2022/07/15 07:26:43;;;;;;;0.75;0.10;;;16.90;99.90;;;;;;6157572;23;20410;-88
2022/07/15 07:29:26;;;;;;;;;;;;;;;;;;;;;
2022/07/15 07:32:02;;;;;;;0.20;0.10;;;17.40;99.90;;;;;;6177649;23;20499;-88
2022/07/15 07:34:29;;;;;;;4.70;0.10;;;17.50;99.90;;;;;;6158077;23;20013;-89
2022/07/15 07:37:07;;;;;;;1.58;0.10;;;17.50;99.90;;;;;;6184165;23;20443;-89
2022/07/15 07:39:38;;;;;;;1.92;0.10;;;17.50;99.90;;;;;;6158458;23;20056;-89
2022/07/15 07:42:06;;;;;;;1.98;0.10;;;17.50;99.90;;;;;;6135238;23;20013;-89
2022/07/15 07:44:32;;;;;;;0.30;0.08;;;17.50;99.90;;;;;;6159831;23;20044;-87
2022/07/15 07:46:58;;;;;;;0.68;0.10;;;17.60;99.90;;;;;;6159477;23;20099;-88
2022/07/15 07:49:23;;;;;;;1.27;0.20;;;17.60;99.90;;;;;;6135140;23;20021;-90
2022/07/15 07:51:49;;;;;;;0.40;0.10;;;17.50;99.90;;;;;;6159920;23;20079;-88
2022/07/15 07:54:15;;;;;;;1.88;0.20;;;17.60;99.90;;;;;;6159434;23;20021;-87
2022/07/15 07:56:51;;;;;;;;;;;;;;;;;;;;;
2022/07/15 07:59:20;;;;;;;1.85;0.20;;;17.90;99.90;;;;;;6150471;23;20030;-88
2022/07/15 08:01:46;;;;;;;2.92;0.20;;;18.20;99.90;;;;;;6159694;23;20021;-87
2022/07/15 08:04:11;;;;;;;0.93;0.20;;;18.40;99.90;;;;;;6160079;23;20024;-88
2022/07/15 08:06:47;;;;;;;1.08;0.13;;;18.40;99.90;;;;;;6186867;23;20099;-91
2022/07/15 08:09:13;;;;;;;0.50;0.10;;;18.30;99.90;;;;;;6160008;23;20024;-89
2022/07/15 08:11:39;;;;;;;1.90;0.10;;;18.60;99.90;;;;;;6159197;23;20021;-88
2022/07/15 08:14:08;;;;;;;0.10;0.00;;;18.70;99.90;;;;;;6160552;23;20024;-88
2022/07/15 08:16:34;;;;;;;1.35;0.10;;;18.90;99.90;;;;;;6186131;23;20100;-87
2022/07/15 08:19:02;;;;;;;0.68;0.10;;;18.90;99.90;;;;;;6134895;23;20056;-88
2022/07/15 08:21:28;;;;;;;0.70;0.10;;;19.00;99.90;;;;;;6186365;23;20010;-87
2022/07/15 08:24:32;;;;;;;0.28;0.10;;;19.10;99.90;;;;;;6176195;23;20101;-87
2022/07/15 08:26:58;;;;;;;1.00;0.30;;;19.40;99.90;;;;;;6129569;23;20072;-85
2022/07/15 08:29:23;;;;;;;1.45;0.10;;;19.60;99.90;;;;;;6154446;23;20029;-86
2022/07/15 08:31:50;;;;;;;0.52;0.08;;;19.80;99.90;;;;;;6156669;23;20015;-84
2022/07/15 08:34:15;;;;;;;0.10;0.00;;;19.80;99.90;;;;;;6154609;23;20032;-86
2022/07/15 08:36:41;;;;;;;1.00;0.13;;;19.90;99.90;;;;;;6154997;23;20344;-85
2022/07/15 08:39:07;;;;;;;2.55;0.15;;;20.00;99.90;;;;;;6154985;23;20031;-84
2022/07/15 08:41:36;;;;;;;0.00;0.00;;;20.20;99.90;;;;;;6155884;23;20341;-84
2022/07/15 08:44:05;;;;;;;0.00;0.00;;;20.20;99.90;;;;;;6129930;23;20021;-86
2022/07/15 08:46:33;;;;;;;0.45;0.20;;;20.10;99.90;;;;;;6154497;23;20142;-86
2022/07/15 08:49:08;;;;;;;2.53;0.20;;;20.10;99.90;;;;;;6156374;23;20036;-84
2022/07/15 08:51:39;;;;;;;2.20;0.10;;;20.00;99.90;;;;;;6153505;23;20029;-86
2022/07/15 08:54:25;;;;;;;0.68;0.10;;;20.20;99.90;;;;;;6158784;22;20106;-94
2022/07/15 08:56:51;;;;;;;;;;;20.30;99.90;;;;;;6156750;23;20124;-87
2022/07/15 08:59:17;;;;;;;;;;;20.20;99.90;;;;;;6130160;23;19921;-88
2022/07/15 09:01:44;;;;;;;;;;;20.40;99.90;;;;;;6130187;23;19917;-88
2022/07/15 09:04:09;;;;;;;0.05;0.00;;;20.50;99.90;;;;;;6129628;23;19916;-88
2022/07/15 09:06:44;;;;;;;1.25;0.10;;;20.50;99.90;;;;;;6129353;23;20029;-88
2022/07/15 09:09:25;;;;;;;0.00;0.00;;;20.70;99.90;;;;;;6129580;23;20025;-88
2022/07/15 09:11:57;;;;;;;0.22;0.10;;;20.80;99.90;;;;;;6129660;23;20017;-87
2022/07/15 09:14:26;;;;;;;0.03;0.00;;;20.90;99.90;;;;;;6156050;23;20021;-88
2022/07/15 09:17:09;;;;;;;4.35;0.28;;;20.90;99.90;;;;;;6129399;23;20025;-87
2022/07/15 09:19:58;;;;;;;1.00;0.10;;;21.00;99.90;;;;;;6129274;23;20018;-87
2022/07/15 09:22:27;;;;;;;0.20;0.10;;;20.80;99.90;;;;;;6129875;23;20021;-87
2022/07/15 09:25:07;;;;;;;0.90;0.10;;;20.50;99.90;;;;;;6107120;23;20022;-87
2022/07/15 09:27:38;;;;;;;1.10;0.30;;;20.60;99.90;;;;;;6156528;23;20021;-87
2022/07/15 09:36:17;;;;;;;0.75;0.20;;;20.30;99.90;;;;;;6128764;23;20523;-87
2022/07/15 09:38:44;;;;;;;0.20;0.10;;;20.40;99.90;;;;;;6129964;23;20022;-87
2022/07/15 09:41:36;;;;;;;3.05;0.30;;;20.30;99.90;;;;;;6129644;23;20018;-88
2022/07/15 09:44:16;;;;;;;1.23;0.10;;;20.60;99.90;;;;;;6155597;23;20014;-87
2022/07/15 09:47:01;;;;;;;3.72;0.20;;;20.50;99.90;;;;;;6129100;23;20028;-88
2022/07/15 09:49:26;;;;;;;1.27;0.10;;;20.50;99.90;;;;;;6128591;23;20464;-87
2022/07/15 09:51:54;;;;;;;1.45;0.13;;;20.50;99.90;;;;;;6155225;23;20014;-87
2022/07/15 09:54:24;;;;;;;0.63;0.10;;;20.30;99.90;;;;;;6129319;23;20021;-87
2022/07/15 09:56:51;;;;;;;2.03;0.00;;;20.40;99.90;;;;;;6154634;23;20021;-88
2022/07/15 09:59:17;;;;;;;0.10;0.00;;;20.20;99.90;;;;;;6185435;23;20529;-86
2022/07/15 10:01:47;;;;;;;0.32;0.00;;;20.20;99.90;;;;;;6158443;23;20021;-88
2022/07/15 10:04:16;;;;;;;0.38;0.10;;;20.20;99.90;;;;;;6158236;23;20353;-86
2022/07/15 10:06:42;;;;;;;0.40;0.10;;;20.40;99.90;;;;;;6133755;23;20017;-87
2022/07/15 10:09:11;;;;;;;3.03;0.38;;;20.60;99.90;;;;;;6158417;23;20024;-87
2022/07/15 10:11:48;;;;;;;0.30;0.10;;;20.70;99.90;;;;;;6158256;23;20017;-89
2022/07/15 10:14:26;;;;;;;0.10;0.00;;;20.60;99.90;;;;;;6158487;23;20021;-87
2022/07/15 10:17:17;;;;;;;0.30;0.10;;;20.50;99.90;;;;;;6158643;23;20029;-88
2022/07/15 10:20:09;;;;;;;0.50;0.10;;;20.50;99.90;;;;;;6158351;23;20025;-88
2022/07/15 10:22:56;;;;;;;0.08;0.00;;;20.50;99.90;;;;;;6158914;23;20039;-88
2022/07/15 10:25:48;;;;;;;1.08;0.10;;;20.70;99.90;;;;;;6158153;23;20047;-89
2022/07/15 10:28:33;;;;;;;0.50;0.00;;;21.00;99.90;;;;;;6093561;23;20020;-87
2022/07/15 10:31:22;;;;;;;1.90;0.10;;;21.20;99.90;;;;;;6093730;23;20509;-88
2022/07/15 10:34:03;;;;;;;0.10;0.03;;;21.50;99.90;;;;;;6093812;23;20025;-87
2022/07/15 10:36:53;;;;;;;1.55;0.20;;;21.60;99.90;;;;;;6069712;23;20119;-87
2022/07/15 10:39:50;;;;;;;1.65;0.20;;;21.60;99.60;;;;;;6069575;23;20029;-88
2022/07/15 10:42:20;;;;;;;2.55;0.10;;;21.40;99.40;;;;;;6012067;23;20023;-87
2022/07/15 10:53:40;;;;;;;;;;;;;;;;;;;;;
2022/07/15 10:57:18;;;;;;;0.25;0.10;;;20.50;99.90;;;;;;6150676;23;20437;-87
2022/07/15 11:00:25;;;;;;;1.30;0.10;;;20.40;99.90;;;;;;6125445;23;20025;-89
2022/07/15 11:03:20;;;;;;;1.35;0.03;;;20.40;99.90;;;;;;6012477;23;20054;-88
2022/07/15 11:05:52;;;;;;;0.05;0.05;;;20.50;99.90;;;;;;5956962;24;20032;-88
2022/07/15 11:08:40;;;;;;;1.00;0.00;;;20.50;99.90;;;;;;5979613;24;20472;-87
2022/07/15 11:11:15;;;;;;;0.22;0.05;;;20.80;99.90;;;;;;5955747;24;20016;-88
2022/07/15 11:14:27;;;;;;;0.47;0.20;;;20.70;99.90;;;;;;5956283;24;20504;-87
2022/07/15 11:16:56;;;;;;;1.20;0.03;;;20.80;99.90;;;;;;6009519;23;20089;-87
2022/07/15 11:20:13;;;;;;;0.50;0.03;;;20.80;99.90;;;;;;5985480;23;20019;-89
2022/07/15 11:23:01;;;;;;;1.15;0.03;;;20.70;99.90;;;;;;5953488;24;20429;-89
2022/07/15 11:25:40;;;;;;;0.00;0.00;;;20.70;99.90;;;;;;5953590;24;20479;-88
2022/07/15 11:28:17;;;;;;;0.63;0.10;;;20.70;99.90;;;;;;5932374;24;20032;-88
2022/07/15 11:30:55;;;;;;;0.45;0.10;;;20.80;99.80;;;;;;5953609;24;20025;-88
2022/07/15 11:33:40;;;;;;;3.25;0.15;;;20.80;99.90;;;;;;5953282;24;20033;-87
2022/07/15 11:47:00;;;;;;;1.15;0.10;;;19.90;99.90;;;;;;5953790;24;20035;-84
2022/07/15 11:54:56;;;;;;;0.30;0.20;;;18.70;99.90;;;;;;6125875;23;20073;-87
2022/07/15 11:57:25;;;;;;;3.88;0.28;;;18.60;99.90;;;;;;6100904;23;20014;-92
2022/07/15 11:59:55;;;;;;;0.73;0.20;;;18.60;99.90;;;;;;6100778;23;20022;-85
2022/07/15 12:05:00;;;;;;;1.65;0.28;;;18.50;99.90;;;;;;6179973;22;20029;-88
2022/07/15 12:07:41;;;;;;;0.80;0.20;;;18.70;99.90;;;;;;6159681;23;20456;-87
2022/07/15 12:10:07;;;;;;;1.90;0.20;;;18.70;99.90;;;;;;6159708;23;20100;-86
2022/07/15 12:12:33;;;;;;;2.83;0.28;;;18.70;99.90;;;;;;6186384;23;20017;-88
2022/07/15 12:15:00;;;;;;;3.45;0.30;;;18.80;99.90;;;;;;6159216;23;20017;-88
2022/07/15 12:17:28;;;;;;;4.38;0.30;;;18.80;99.90;;;;;;6159150;23;20024;-86
2022/07/15 12:19:58;;;;;;;1.30;0.30;;;18.70;99.90;;;;;;6160113;23;20025;-87
2022/07/15 12:22:24;;;;;;;0.90;0.20;;;18.60;99.90;;;;;;6159531;23;20021;-88
2022/07/15 12:24:51;;;;;;;1.80;0.40;;;18.40;99.90;;;;;;6185867;23;20052;-87
2022/07/15 12:27:18;;;;;;;1.25;0.28;;;18.30;99.90;;;;;;6158996;23;20024;-86
2022/07/15 12:30:03;;;;;;;2.47;0.30;;;18.30;99.90;;;;;;6159421;23;20028;-89
2022/07/15 12:32:29;;;;;;;1.63;0.20;;;18.30;99.90;;;;;;6185876;23;20104;-88
2022/07/15 12:35:01;;;;;;;2.25;0.30;;;18.30;99.90;;;;;;6186243;23;20040;-88
2022/07/15 12:41:10;;;;;;;0.20;0.20;;;18.40;99.90;;;;;;6185776;23;20067;-87
2022/07/15 12:43:55;;;;;;;2.15;0.30;;;18.50;99.90;;;;;;6185796;23;20044;-88
2022/07/15 12:46:41;;;;;;;1.70;0.27;;;18.50;99.90;;;;;;6159162;23;20031;-87
2022/07/15 12:49:07;;;;;;;0.98;0.25;;;18.60;99.90;;;;;;6185379;23;20024;-86
2022/07/15 12:55:56;;;;;;;0.77;0.20;;;18.40;99.90;;;;;;6185646;23;20039;-89
2022/07/15 12:58:30;;;;;;;0.30;0.20;;;18.40;99.90;;;;;;6182471;23;20019;-87
2022/07/15 13:01:14;;;;;;;1.08;0.30;;;18.40;99.90;;;;;;6184996;23;20092;-87
2022/07/15 13:03:40;;;;;;;0.17;0.05;;;18.50;99.90;;;;;;6158147;23;20024;-86
2022/07/15 13:06:07;;;;;;;0.10;0.10;;;18.50;99.90;;;;;;6185846;23;20404;-86
2022/07/15 13:08:38;;;;;;;0.82;0.20;;;18.50;99.90;;;;;;6158708;23;20020;-86
2022/07/15 13:11:06;;;;;;;1.55;0.20;;;18.50;99.90;;;;;;6158984;23;20032;-88
2022/07/15 13:13:34;;;;;;;1.20;0.30;;;18.70;99.90;;;;;;6184795;23;20071;-84
2022/07/15 13:16:02;;;;;;;0.20;0.20;;;18.60;99.90;;;;;;6185198;23;20021;-84
2022/07/15 13:18:29;;;;;;;0.47;0.20;;;18.70;99.90;;;;;;6185180;23;20059;-83
2022/07/15 13:20:56;;;;;;;0.93;0.20;;;18.70;99.90;;;;;;6159234;23;20439;-86
2022/07/15 13:23:23;;;;;;;1.90;0.32;;;18.70;99.90;;;;;;6185096;23;20028;-86
2022/07/15 13:25:50;;;;;;;0.60;0.20;;;18.70;99.90;;;;;;6134412;23;20017;-86
2022/07/15 13:28:17;;;;;;;2.35;0.30;;;18.70;99.90;;;;;;6157632;23;20024;-87
2022/07/15 13:30:42;;;;;;;3.13;0.22;;;18.80;99.90;;;;;;6185120;23;20434;-86
2022/07/15 13:33:08;;;;;;;0.75;0.20;;;18.90;99.90;;;;;;6185127;23;20087;-87
2022/07/15 13:35:34;;;;;;;1.35;0.35;;;19.00;99.90;;;;;;6184819;23;20021;-87
2022/07/15 13:38:00;;;;;;;2.85;0.63;;;19.20;99.90;;;;;;6158671;23;20028;-86
2022/07/15 13:40:26;;;;;;;1.75;0.20;;;19.30;99.90;;;;;;6158311;23;20108;-87
2022/07/15 13:42:52;;;;;;;3.63;0.30;;;19.40;99.90;;;;;;6185178;23;20083;-86
2022/07/15 13:45:17;;;;;;;1.10;0.30;;;19.50;99.90;;;;;;6158191;23;20514;-87
2022/07/15 13:47:43;;;;;;;0.55;0.20;;;19.50;99.90;;;;;;6158289;23;20047;-87
2022/07/15 13:52:57;;;;;;;0.45;0.20;;;19.50;99.90;;;;;;6184400;23;20021;-87
2022/07/15 13:55:24;;;;;;;0.55;0.20;;;19.60;99.90;;;;;;6158854;23;20021;-87
2022/07/15 13:57:50;;;;;;;0.55;0.20;;;19.80;99.90;;;;;;6184686;23;20021;-88
2022/07/15 14:00:21;;;;;;;3.20;0.30;;;19.70;99.90;;;;;;6157961;23;20455;-86
2022/07/15 14:02:47;;;;;;;0.98;0.20;;;19.80;99.90;;;;;;6182368;23;20048;-87
2022/07/15 14:05:13;;;;;;;0.68;0.20;;;19.80;99.90;;;;;;6155197;23;20033;-86
2022/07/15 14:07:40;;;;;;;0.30;0.20;;;19.80;99.90;;;;;;6128651;23;20027;-88
2022/07/15 14:10:07;;;;;;;1.35;0.28;;;19.80;99.90;;;;;;6128679;23;20025;-87
2022/07/15 14:12:33;;;;;;;0.82;0.30;;;19.90;99.90;;;;;;6128480;23;20403;-86
2022/07/15 14:14:58;;;;;;;2.13;0.20;;;20.10;99.90;;;;;;6155362;23;20022;-86
2022/07/15 14:17:25;;;;;;;1.20;0.28;;;20.10;99.90;;;;;;6129459;23;20025;-87
2022/07/15 14:19:51;;;;;;;2.50;0.30;;;20.20;99.90;;;;;;6155450;23;20202;-86
2022/07/15 14:22:17;;;;;;;1.95;0.20;;;20.30;99.90;;;;;;6128511;23;20088;-86